createdAt,value
2023-03-17T00:01:45.029Z,100223.50
2023-03-17T00:04:46.609Z,100222.42
2023-03-17T00:07:48.388Z,100221.57
2023-03-17T00:10:51.132Z,100222.52
2023-03-17T00:13:52.840Z,100228.61
2023-03-17T00:16:54.360Z,100229.37
2023-03-17T00:19:56.099Z,100224.65
2023-03-17T00:22:59.355Z,100223.55
2023-03-17T00:26:00.957Z,100223.29
2023-03-17T00:29:02.571Z,100228.65
2023-03-17T00:32:04.415Z,100222.72
2023-03-17T00:35:14.237Z,100223.15
2023-03-17T00:38:17.518Z,100220.12
2023-03-17T00:41:19.832Z,100218.05
2023-03-17T00:44:21.427Z,100217.60
2023-03-17T00:47:22.934Z,100221.02
2023-03-17T00:50:28.609Z,100222.88
2023-03-17T00:53:30.568Z,100225.98
2023-03-17T00:56:32.053Z,100220.46
2023-03-17T00:59:39.451Z,100224.01
2023-03-17T01:02:40.952Z,100225.89
2023-03-17T01:05:42.723Z,100233.73
2023-03-17T01:08:44.452Z,100231.97
2023-03-17T01:11:46.621Z,100229.02
2023-03-17T01:14:48.232Z,100222.95
2023-03-17T01:17:50.717Z,100225.84
2023-03-17T01:20:52.348Z,100222.02
2023-03-17T01:23:55.874Z,100219.65
2023-03-17T01:26:57.910Z,100221.83
2023-03-17T01:29:59.446Z,100221.34
2023-03-17T01:33:01.319Z,100219.52
2023-03-17T01:36:03.089Z,100216.67
2023-03-17T01:39:04.818Z,100216.14
2023-03-17T01:42:06.785Z,100210.14
2023-03-17T01:45:47.498Z,100212.70
2023-03-17T01:49:24.777Z,100212.52
2023-03-17T01:52:27.189Z,100218.20
2023-03-17T01:55:28.795Z,100220.11
2023-03-17T01:58:31.469Z,100213.95
2023-03-17T02:01:41.660Z,100211.58
2023-03-17T02:04:43.238Z,100205.18
2023-03-17T02:07:45.132Z,100195.55
2023-03-17T02:10:48.554Z,100196.56
2023-03-17T02:13:50.325Z,100194.37
2023-03-17T02:16:52.037Z,100197.34
2023-03-17T02:19:54.591Z,100195.40
2023-03-17T02:22:56.608Z,100190.77
2023-03-17T02:25:58.277Z,100187.02
2023-03-17T02:29:00.129Z,100185.16
2023-03-17T02:32:02.662Z,100184.59
2023-03-17T02:35:06.882Z,100187.77
2023-03-17T02:38:08.673Z,100193.45
2023-03-17T02:41:10.630Z,100194.21
2023-03-17T02:44:12.303Z,100191.98
2023-03-17T02:47:14.692Z,100191.95
2023-03-17T02:50:22.437Z,100190.77
2023-03-17T02:53:23.990Z,100188.17
2023-03-17T02:56:25.590Z,100194.37
2023-03-17T02:59:27.557Z,100196.16
2023-03-17T03:02:29.337Z,100191.14
2023-03-17T03:05:31.005Z,100202.20
2023-03-17T03:08:32.612Z,100201.41
2023-03-17T03:11:34.404Z,100203.02
2023-03-17T03:14:36.130Z,100212.92
2023-03-17T03:17:37.820Z,100210.66
2023-03-17T03:20:42.796Z,100207.05
2023-03-17T03:23:44.495Z,100207.20
2023-03-17T03:26:46.082Z,100203.02
2023-03-17T03:29:47.642Z,100202.30
2023-03-17T03:32:49.489Z,100202.71
2023-03-17T03:35:51.104Z,100209.80
2023-03-17T03:38:52.659Z,100211.23
2023-03-17T03:41:54.503Z,100217.34
2023-03-17T03:44:55.954Z,100232.35
2023-03-17T03:47:57.590Z,100222.17
2023-03-17T03:51:00.670Z,100207.76
2023-03-17T03:54:02.231Z,100204.20
2023-03-17T03:57:03.965Z,100201.77
2023-03-17T04:00:06.890Z,100203.56
2023-03-17T04:03:08.896Z,100193.20
2023-03-17T04:06:10.588Z,100186.19
2023-03-17T04:09:12.136Z,100184.05
2023-03-17T04:12:13.718Z,100188.68
2023-03-17T04:15:17.050Z,100202.98
2023-03-17T04:18:18.598Z,100202.63
2023-03-17T04:21:20.186Z,100201.74
2023-03-17T04:24:21.830Z,100204.52
2023-03-17T04:27:23.714Z,100208.10
2023-03-17T04:30:25.347Z,100211.88
2023-03-17T04:33:27.054Z,100209.06
2023-03-17T04:36:28.792Z,100206.94
2023-03-17T04:39:30.340Z,100213.23
2023-03-17T04:42:31.906Z,100205.71
2023-03-17T04:45:33.598Z,100198.52
2023-03-17T04:48:35.614Z,100197.30
2023-03-17T04:51:37.219Z,100207.72
2023-03-17T04:54:38.928Z,100200.20
2023-03-17T04:57:40.710Z,100204.21
2023-03-17T05:00:43.006Z,100212.45
2023-03-17T05:03:44.601Z,100214.57
2023-03-17T05:06:46.387Z,100211.15
2023-03-17T05:09:47.993Z,100210.38
2023-03-17T05:12:49.557Z,100207.56
2023-03-17T05:15:52.583Z,100214.40
2023-03-17T05:18:57.341Z,100211.15
2023-03-17T05:21:59.182Z,100213.78
2023-03-17T05:25:00.750Z,100222.81
2023-03-17T05:28:03.030Z,100219.15
2023-03-17T05:31:04.755Z,100208.89
2023-03-17T05:34:06.573Z,100217.14
2023-03-17T05:37:08.300Z,100216.98
2023-03-17T05:40:11.576Z,100211.36
2023-03-17T05:43:13.220Z,100214.67
2023-03-17T05:46:15.295Z,100214.16
2023-03-17T05:49:16.992Z,100215.65
2023-03-17T05:52:18.751Z,100216.55
2023-03-17T05:55:20.419Z,100216.89
2023-03-17T05:58:22.065Z,100214.45
2023-03-17T06:01:23.608Z,100220.16
2023-03-17T06:04:25.282Z,100220.33
2023-03-17T06:07:27.023Z,100222.15
2023-03-17T06:10:30.359Z,100223.75
2023-03-17T06:13:32.395Z,100228.71
2023-03-17T06:16:34.012Z,100237.26
2023-03-17T06:19:35.756Z,100239.67
2023-03-17T06:22:37.455Z,100229.58
2023-03-17T06:25:39.193Z,100227.96
2023-03-17T06:28:40.797Z,100227.92
2023-03-17T06:31:42.401Z,100223.41
2023-03-17T06:34:44.313Z,100230.55
2023-03-17T06:37:46.120Z,100240.38
2023-03-17T06:40:47.628Z,100235.80
2023-03-17T06:43:49.331Z,100238.25
2023-03-17T06:46:50.927Z,100240.58
2023-03-17T06:49:53.645Z,100235.71
2023-03-17T06:52:55.247Z,100235.55
2023-03-17T06:55:56.867Z,100240.91
2023-03-17T06:58:59.029Z,100237.63
2023-03-17T07:02:00.563Z,100238.46
2023-03-17T07:05:02.318Z,100238.78
2023-03-17T07:08:08.895Z,100228.77
2023-03-17T07:11:10.525Z,100228.08
2023-03-17T07:14:12.196Z,100230.77
2023-03-17T07:17:14.671Z,100229.06
2023-03-17T07:20:16.555Z,100227.25
2023-03-17T07:23:22.305Z,100233.21
2023-03-17T07:26:23.921Z,100223.77
2023-03-17T07:29:25.566Z,100217.58
2023-03-17T07:32:27.209Z,100215.02
2023-03-17T07:35:29.473Z,100210.54
2023-03-17T07:38:31.275Z,100211.39
2023-03-17T07:41:33.060Z,100209.13
2023-03-17T07:44:34.627Z,100205.34
2023-03-17T07:47:36.233Z,100206.61
2023-03-17T07:50:38.144Z,100200.92
2023-03-17T07:53:39.995Z,100207.27
2023-03-17T07:56:41.972Z,100198.83
2023-03-17T07:59:43.573Z,100194.17
2023-03-17T08:02:46.946Z,100201.04
2023-03-17T08:05:53.901Z,100191.91
2023-03-17T08:08:55.499Z,100195.17
2023-03-17T08:11:56.999Z,100202.14
2023-03-17T08:14:58.681Z,100195.92
2023-03-17T08:18:00.356Z,100191.91
2023-03-17T08:21:02.228Z,100194.62
2023-03-17T08:24:03.914Z,100195.92
2023-03-17T08:27:05.503Z,100193.80
2023-03-17T08:30:07.937Z,100197.31
2023-03-17T08:33:09.549Z,100199.02
2023-03-17T08:36:11.228Z,100195.64
2023-03-17T08:39:13.063Z,100201.71
2023-03-17T08:42:14.734Z,100202.73
2023-03-17T08:45:17.212Z,100196.55
2023-03-17T08:48:20.135Z,100195.10
2023-03-17T08:51:24.603Z,100195.52
2023-03-17T08:54:26.404Z,100190.23
2023-03-17T08:57:28.260Z,100187.25
2023-03-17T09:00:30.185Z,100183.02
2023-03-17T09:03:33.545Z,100185.97
2023-03-17T09:06:35.179Z,100181.13
2023-03-17T09:09:36.878Z,100183.04
2023-03-17T09:12:38.429Z,100183.61
2023-03-17T09:15:40.355Z,100184.95
2023-03-17T09:18:42.547Z,100180.73
2023-03-17T09:21:44.546Z,100172.27
2023-03-17T09:24:46.238Z,100170.41
2023-03-17T09:27:47.799Z,100167.98
2023-03-17T09:30:49.562Z,100164.73
2023-03-17T09:33:51.203Z,100166.92
2023-03-17T09:36:56.041Z,100161.14
2023-03-17T09:39:57.549Z,100155.27
2023-03-17T09:43:21.175Z,100151.47
2023-03-17T09:46:40.807Z,100153.42
2023-03-17T09:49:51.556Z,100139.58
2023-03-17T09:52:55.934Z,100137.94
2023-03-17T09:55:58.442Z,100137.23
2023-03-17T09:59:05.027Z,100132.39
2023-03-17T10:02:18.669Z,100129.20
2023-03-17T10:05:23.819Z,100134.04
2023-03-17T10:08:32.186Z,100124.34
2023-03-17T10:11:48.550Z,100119.73
2023-03-17T10:15:05.863Z,100114.09
2023-03-17T10:18:12.889Z,100107.80
2023-03-17T10:21:18.943Z,100101.39
2023-03-17T10:24:21.605Z,100098.37
2023-03-17T10:27:23.289Z,100093.86
2023-03-17T10:30:24.996Z,100088.59
2023-03-17T10:33:26.700Z,100080.98
2023-03-17T10:36:37.372Z,100084.39
2023-03-17T10:39:45.546Z,100081.92
2023-03-17T10:43:02.373Z,100081.68
2023-03-17T10:46:24.741Z,100075.92
2023-03-17T10:49:26.782Z,100078.19
2023-03-17T10:52:30.981Z,100078.98
2023-03-17T10:55:44.044Z,100075.05
2023-03-17T10:58:49.095Z,100073.77
2023-03-17T11:01:53.760Z,100068.50
2023-03-17T11:05:02.811Z,100068.84
2023-03-17T11:08:17.666Z,100060.06
2023-03-17T11:11:31.067Z,100055.38
2023-03-17T11:14:32.942Z,100058.39
2023-03-17T11:17:53.595Z,100048.20
2023-03-17T11:21:22.652Z,100045.01
2023-03-17T11:24:32.230Z,100046.12
2023-03-17T11:27:43.603Z,100046.89
2023-03-17T11:31:06.778Z,100041.13
2023-03-17T11:34:13.291Z,100035.50
2023-03-17T11:37:26.125Z,100034.19
2023-03-17T11:40:49.421Z,100029.29
2023-03-17T11:44:00.975Z,100024.87
2023-03-17T11:47:19.284Z,100023.73
2023-03-17T11:50:27.459Z,100016.64
2023-03-17T11:53:51.070Z,100013.63
2023-03-17T11:56:56.257Z,100011.64
2023-03-17T12:00:06.639Z,100002.06
2023-03-17T12:03:16.814Z,99997.91
2023-03-17T12:06:30.183Z,99986.98
2023-03-17T12:09:37.144Z,99983.59
2023-03-17T12:12:41.644Z,99983.80
2023-03-17T12:15:48.291Z,99983.93
2023-03-17T12:19:01.212Z,99984.21
2023-03-17T12:22:22.958Z,99987.67
2023-03-17T12:25:30.281Z,99981.05
2023-03-17T12:28:46.888Z,99966.43
2023-03-17T12:31:53.675Z,99958.78
2023-03-17T12:35:00.551Z,99957.42
2023-03-17T12:38:08.629Z,99959.21
2023-03-17T12:41:15.394Z,99957.85
2023-03-17T12:44:59.818Z,99961.39
2023-03-17T12:48:23.564Z,99960.95
2023-03-17T12:51:56.462Z,99947.06
2023-03-17T12:55:00.779Z,99946.45
2023-03-17T12:58:27.013Z,99940.91
2023-03-17T13:01:34.750Z,99937.14
2023-03-17T13:04:36.673Z,99937.67
2023-03-17T13:07:56.386Z,99938.24
2023-03-17T13:11:36.271Z,99937.98
2023-03-17T13:14:47.411Z,99930.20
2023-03-17T13:17:49.881Z,99916.97
2023-03-17T13:20:57.381Z,99905.23
2023-03-17T13:24:22.908Z,99912.80
2023-03-17T13:27:30.602Z,99895.98
2023-03-17T13:30:34.959Z,99891.47
2023-03-17T13:33:44.429Z,99896.37
2023-03-17T13:37:02.906Z,99893.12
2023-03-17T13:40:27.701Z,99893.98
2023-03-17T13:43:39.673Z,99893.42
2023-03-17T13:46:46.586Z,99893.15
2023-03-17T13:49:49.546Z,99887.23
2023-03-17T13:53:17.769Z,99885.73
2023-03-17T13:56:34.519Z,99890.22
2023-03-17T13:59:39.373Z,99881.64
2023-03-17T14:02:42.672Z,99869.24
2023-03-17T14:05:51.885Z,99872.98
2023-03-17T14:08:57.000Z,99869.91
2023-03-17T14:12:00.344Z,99868.46
2023-03-17T14:15:28.405Z,99865.98
2023-03-17T14:18:36.774Z,99872.45
2023-03-17T14:21:38.406Z,99864.10
2023-03-17T14:24:40.158Z,99859.93
2023-03-17T14:27:42.114Z,99853.02
2023-03-17T14:30:52.468Z,99849.02
2023-03-17T14:33:59.000Z,99851.91
2023-03-17T14:37:04.623Z,99851.95
2023-03-17T14:40:21.480Z,99849.12
2023-03-17T14:43:23.107Z,99843.80
2023-03-17T14:46:37.965Z,99843.36
2023-03-17T14:49:39.814Z,99838.26
2023-03-17T14:52:41.547Z,99832.57
2023-03-17T14:55:43.660Z,99831.86
2023-03-17T14:58:46.401Z,99832.26
2023-03-17T15:01:48.504Z,99831.55
2023-03-17T15:04:56.274Z,99825.25
2023-03-17T15:07:57.835Z,99813.48
2023-03-17T15:11:01.037Z,99809.56
2023-03-17T15:14:28.165Z,99805.58
2023-03-17T15:17:35.421Z,99799.30
2023-03-17T15:20:37.114Z,99792.92
2023-03-17T15:23:39.846Z,99794.53
2023-03-17T15:26:41.752Z,99784.99
2023-03-17T15:29:43.805Z,99784.50
2023-03-17T15:32:51.494Z,99786.14
2023-03-17T15:35:53.069Z,99790.19
2023-03-17T15:38:54.826Z,99787.92
2023-03-17T15:41:56.335Z,99789.71
2023-03-17T15:44:58.328Z,99789.57
2023-03-17T15:47:59.930Z,99787.67
2023-03-17T15:51:02.389Z,99784.23
2023-03-17T15:54:04.457Z,99780.72
2023-03-17T15:57:06.056Z,99791.16
2023-03-17T16:00:08.543Z,99793.30
2023-03-17T16:03:26.519Z,99789.02
2023-03-17T16:06:28.117Z,99790.17
2023-03-17T16:09:29.693Z,99793.59
2023-03-17T16:12:31.192Z,99790.27
2023-03-17T16:15:34.819Z,99791.79
2023-03-17T16:18:37.435Z,99790.32
2023-03-17T16:21:39.049Z,99785.86
2023-03-17T16:24:40.768Z,99788.17
2023-03-17T16:27:42.322Z,99782.85
2023-03-17T16:30:43.939Z,99775.08
2023-03-17T16:33:46.100Z,99768.17
2023-03-17T16:36:48.745Z,99765.98
2023-03-17T16:39:50.516Z,99776.61
2023-03-17T16:42:52.089Z,99777.31
2023-03-17T16:45:55.846Z,99774.38
2023-03-17T16:48:57.486Z,99772.24
2023-03-17T16:51:58.990Z,99767.98
2023-03-17T16:55:00.631Z,99767.23
2023-03-17T16:58:18.964Z,99772.09
2023-03-17T17:01:24.024Z,99770.13
2023-03-17T17:04:25.802Z,99768.63
2023-03-17T17:07:27.863Z,99771.88
2023-03-17T17:10:31.799Z,99774.59
2023-03-17T17:13:33.927Z,99774.99
2023-03-17T17:16:37.164Z,99776.35
2023-03-17T17:19:38.852Z,99779.73
2023-03-17T17:22:40.453Z,99782.46
2023-03-17T17:25:42.508Z,99785.30
2023-03-17T17:29:02.965Z,99786.47
2023-03-17T17:32:04.765Z,99795.85
2023-03-17T17:35:07.664Z,99797.73
2023-03-17T17:38:19.042Z,99798.89
2023-03-17T17:41:20.696Z,99798.02
2023-03-17T17:44:22.269Z,99791.67
2023-03-17T17:47:23.990Z,99795.82
2023-03-17T17:50:29.277Z,99791.66
2023-03-17T17:53:30.971Z,99790.67
2023-03-17T17:56:32.542Z,99792.81
2023-03-17T17:59:34.068Z,99797.93
2023-03-17T18:02:35.738Z,99792.83
2023-03-17T18:05:37.380Z,99801.16
2023-03-17T18:08:39.172Z,99804.98
2023-03-17T18:11:41.217Z,99803.36
2023-03-17T18:14:42.821Z,99809.31
2023-03-17T18:17:44.317Z,99806.33
2023-03-17T18:20:45.920Z,99808.14
2023-03-17T18:23:47.593Z,99805.30
2023-03-17T18:26:49.121Z,99803.45
2023-03-17T18:29:50.740Z,99803.48
2023-03-17T18:32:53.520Z,99809.75
2023-03-17T18:35:55.210Z,99806.36
2023-03-17T18:38:56.871Z,99798.60
2023-03-17T18:41:58.408Z,99797.34
2023-03-17T18:44:59.966Z,99801.66
2023-03-17T18:48:01.877Z,99803.95
2023-03-17T18:51:03.628Z,99798.23
2023-03-17T18:54:05.178Z,99792.33
2023-03-17T18:57:06.981Z,99794.47
2023-03-17T19:00:11.637Z,99801.19
2023-03-17T19:03:13.393Z,99802.42
2023-03-17T19:06:17.898Z,99800.75
2023-03-17T19:09:19.453Z,99794.52
2023-03-17T19:12:21.070Z,99797.89
2023-03-17T19:15:23.661Z,99796.81
2023-03-17T19:18:25.291Z,99793.75
2023-03-17T19:21:27.129Z,99791.55
2023-03-17T19:24:28.667Z,99789.58
2023-03-17T19:27:30.216Z,99793.77
2023-03-17T19:30:32.293Z,99795.75
2023-03-17T19:33:34.163Z,99797.45
2023-03-17T19:36:36.142Z,99793.42
2023-03-17T19:39:37.964Z,99791.40
2023-03-17T19:42:39.466Z,99786.29
2023-03-17T19:45:41.054Z,99778.55
2023-03-17T19:48:42.711Z,99781.03
2023-03-17T19:51:44.365Z,99777.23
2023-03-17T19:54:46.210Z,99775.60
2023-03-17T19:57:48.848Z,99777.98
2023-03-17T20:00:50.464Z,99778.17
2023-03-17T20:03:52.034Z,99777.72
2023-03-17T20:06:53.613Z,99774.73
2023-03-17T20:09:55.137Z,99777.15
2023-03-17T20:12:56.865Z,99768.64
2023-03-17T20:15:58.608Z,99765.45
2023-03-17T20:19:00.752Z,99764.62
2023-03-17T20:22:02.380Z,99763.95
2023-03-17T20:25:05.373Z,99762.99
2023-03-17T20:28:06.938Z,99763.58
2023-03-17T20:31:08.861Z,99766.70
2023-03-17T20:34:10.900Z,99772.89
2023-03-17T20:37:12.606Z,99774.14
2023-03-17T20:40:14.195Z,99772.13
2023-03-17T20:43:16.064Z,99769.93
2023-03-17T20:46:22.460Z,99768.41
2023-03-17T20:49:24.458Z,99766.72
2023-03-17T20:52:29.985Z,99765.71
2023-03-17T20:55:31.946Z,99762.52
2023-03-17T20:58:33.528Z,99758.80
2023-03-17T21:01:36.942Z,99756.44
2023-03-17T21:04:38.488Z,99756.81
2023-03-17T21:07:40.096Z,99760.98
2023-03-17T21:10:41.740Z,99754.22
2023-03-17T21:13:43.410Z,99753.05
2023-03-17T21:16:44.933Z,99752.05
2023-03-17T21:19:46.608Z,99751.57
2023-03-17T21:22:48.753Z,99755.53
2023-03-17T21:25:56.483Z,99750.82
2023-03-17T21:28:58.094Z,99749.96
2023-03-17T21:32:01.225Z,99749.45
2023-03-17T21:35:03.056Z,99746.09
2023-03-17T21:38:04.656Z,99748.99
2023-03-17T21:41:32.316Z,99748.70
2023-03-17T21:44:33.920Z,99746.19
2023-03-17T21:47:35.624Z,99746.38
2023-03-17T21:50:37.233Z,99742.52
2023-03-17T21:53:39.153Z,99739.73
2023-03-17T21:56:41.064Z,99741.25
2023-03-17T21:59:42.644Z,99740.73
2023-03-17T22:02:44.176Z,99744.13
2023-03-17T22:05:45.878Z,99750.98
2023-03-17T22:08:47.864Z,99754.23
2023-03-17T22:11:49.440Z,99753.73
2023-03-17T22:14:52.885Z,99747.81
2023-03-17T22:17:54.392Z,99750.75
2023-03-17T22:20:57.092Z,99750.64
2023-03-17T22:23:58.637Z,99745.94
2023-03-17T22:27:00.345Z,99748.89
2023-03-17T22:30:01.970Z,99750.83
2023-03-17T22:33:03.639Z,99744.56
2023-03-17T22:36:06.411Z,99740.21
2023-03-17T22:39:07.984Z,99737.50
2023-03-17T22:42:09.771Z,99740.77
2023-03-17T22:45:13.102Z,99737.55
2023-03-17T22:48:14.902Z,99734.51
2023-03-17T22:51:22.327Z,99732.48
2023-03-17T22:54:23.921Z,99737.27
2023-03-17T22:57:25.439Z,99736.38
2023-03-17T23:00:27.068Z,99740.82
2023-03-17T23:03:28.749Z,99739.77
2023-03-17T23:06:30.365Z,99738.94
2023-03-17T23:09:32.489Z,99734.00
2023-03-17T23:12:35.638Z,99730.24
2023-03-17T23:15:37.537Z,99729.54
2023-03-17T23:18:38.996Z,99730.40
2023-03-17T23:21:40.852Z,99729.20
2023-03-17T23:24:42.339Z,99728.87
2023-03-17T23:27:44.240Z,99722.25
2023-03-17T23:30:46.212Z,99724.30
2023-03-17T23:33:49.374Z,99719.36
2023-03-17T23:36:50.969Z,99721.41
2023-03-17T23:39:52.786Z,99718.67
2023-03-17T23:42:54.298Z,99716.98
2023-03-17T23:45:55.919Z,99724.15
2023-03-17T23:48:57.580Z,99719.72
2023-03-17T23:51:59.180Z,99717.52
2023-03-17T23:55:00.742Z,99718.72
2023-03-17T23:58:02.656Z,99721.64
